sensor_id;sensor_type;location;lat;lon;timestamp;temperature;humidity
59660;DHT22;45534;52.690;6.268;2023-02-01T00:01:18;6.10;99.90
59660;DHT22;45534;52.690;6.268;2023-02-01T00:03:43;6.10;99.90
59660;DHT22;45534;52.690;6.268;2023-02-01T00:06:09;6.10;99.90
59660;DHT22;45534;52.690;6.268;2023-02-01T00:08:35;6.10;99.90
59660;DHT22;45534;52.690;6.268;2023-02-01T00:11:04;6.10;99.90
59660;DHT22;45534;52.690;6.268;2023-02-01T00:13:31;6.10;99.90
59660;DHT22;45534;52.690;6.268;2023-02-01T00:16:11;6.10;99.90
59660;DHT22;45534;52.690;6.268;2023-02-01T00:18:42;6.00;99.90
59660;DHT22;45534;52.690;6.268;2023-02-01T00:21:10;6.10;99.90
59660;DHT22;45534;52.690;6.268;2023-02-01T00:23:36;6.10;99.90
59660;DHT22;45534;52.690;6.268;2023-02-01T00:26:04;6.10;99.90
59660;DHT22;45534;52.690;6.268;2023-02-01T00:28:30;6.00;99.90
59660;DHT22;45534;52.690;6.268;2023-02-01T00:30:57;6.00;99.90
59660;DHT22;45534;52.690;6.268;2023-02-01T00:33:23;6.00;99.90
59660;DHT22;45534;52.690;6.268;2023-02-01T00:35:49;6.00;99.90
59660;DHT22;45534;52.690;6.268;2023-02-01T00:38:15;6.00;99.90
59660;DHT22;45534;52.690;6.268;2023-02-01T00:40:40;5.90;99.90
59660;DHT22;45534;52.690;6.268;2023-02-01T00:43:06;5.90;99.90
59660;DHT22;45534;52.690;6.268;2023-02-01T00:45:32;5.90;99.90
59660;DHT22;45534;52.690;6.268;2023-02-01T00:47:57;5.90;99.90
59660;DHT22;45534;52.690;6.268;2023-02-01T00:50:23;5.90;99.90
59660;DHT22;45534;52.690;6.268;2023-02-01T00:52:48;5.90;99.90
59660;DHT22;45534;52.690;6.268;2023-02-01T00:55:14;6.00;99.90
59660;DHT22;45534;52.690;6.268;2023-02-01T00:57:40;6.00;99.90
59660;DHT22;45534;52.690;6.268;2023-02-01T01:00:06;6.00;99.90
59660;DHT22;45534;52.690;6.268;2023-02-01T01:02:32;6.00;99.90
59660;DHT22;45534;52.690;6.268;2023-02-01T01:04:57;6.00;99.90
59660;DHT22;45534;52.690;6.268;2023-02-01T01:07:23;6.10;99.90
59660;DHT22;45534;52.690;6.268;2023-02-01T01:09:49;6.10;99.90
59660;DHT22;45534;52.690;6.268;2023-02-01T01:12:14;6.10;99.90
59660;DHT22;45534;52.690;6.268;2023-02-01T01:14:40;6.10;99.90
59660;DHT22;45534;52.690;6.268;2023-02-01T01:17:06;6.00;99.90
59660;DHT22;45534;52.690;6.268;2023-02-01T01:19:31;6.10;99.90
59660;DHT22;45534;52.690;6.268;2023-02-01T01:21:57;6.00;99.90
59660;DHT22;45534;52.690;6.268;2023-02-01T01:24:23;6.10;99.90
59660;DHT22;45534;52.690;6.268;2023-02-01T01:26:48;6.10;99.90
59660;DHT22;45534;52.690;6.268;2023-02-01T01:29:14;6.00;99.90
59660;DHT22;45534;52.690;6.268;2023-02-01T01:31:40;6.00;99.90
59660;DHT22;45534;52.690;6.268;2023-02-01T01:34:05;6.00;99.90
59660;DHT22;45534;52.690;6.268;2023-02-01T01:36:31;6.00;99.90
59660;DHT22;45534;52.690;6.268;2023-02-01T01:38:57;6.00;99.90
59660;DHT22;45534;52.690;6.268;2023-02-01T01:41:25;6.00;99.90
59660;DHT22;45534;52.690;6.268;2023-02-01T01:43:57;6.00;99.90
59660;DHT22;45534;52.690;6.268;2023-02-01T01:46:31;6.00;99.90
59660;DHT22;45534;52.690;6.268;2023-02-01T01:49:19;6.00;99.90
59660;DHT22;45534;52.690;6.268;2023-02-01T01:51:57;6.00;99.90
59660;DHT22;45534;52.690;6.268;2023-02-01T01:54:32;6.10;99.90
59660;DHT22;45534;52.690;6.268;2023-02-01T01:57:06;6.10;99.90
59660;DHT22;45534;52.690;6.268;2023-02-01T01:59:34;6.10;99.90
59660;DHT22;45534;52.690;6.268;2023-02-01T02:02:02;6.10;99.90
59660;DHT22;45534;52.690;6.268;2023-02-01T02:04:27;6.10;99.90
59660;DHT22;45534;52.690;6.268;2023-02-01T02:07:05;6.10;99.90
59660;DHT22;45534;52.690;6.268;2023-02-01T02:09:33;6.10;99.90
59660;DHT22;45534;52.690;6.268;2023-02-01T02:11:59;6.10;99.90
59660;DHT22;45534;52.690;6.268;2023-02-01T02:14:25;6.10;99.90
59660;DHT22;45534;52.690;6.268;2023-02-01T02:28:36;6.10;99.90
59660;DHT22;45534;52.690;6.268;2023-02-01T02:34:12;6.10;99.90
59660;DHT22;45534;52.690;6.268;2023-02-01T02:42:32;6.10;99.90
59660;DHT22;45534;52.690;6.268;2023-02-01T02:45:26;6.10;99.90
59660;DHT22;45534;52.690;6.268;2023-02-01T02:48:19;6.10;99.90
59660;DHT22;45534;52.690;6.268;2023-02-01T02:51:05;6.10;99.90
59660;DHT22;45534;52.690;6.268;2023-02-01T02:54:05;6.10;99.90
59660;DHT22;45534;52.690;6.268;2023-02-01T02:56:52;6.10;99.90
59660;DHT22;45534;52.690;6.268;2023-02-01T02:59:38;6.10;99.90
59660;DHT22;45534;52.690;6.268;2023-02-01T03:02:25;6.10;99.90
59660;DHT22;45534;52.690;6.268;2023-02-01T03:05:10;6.10;99.90
59660;DHT22;45534;52.690;6.268;2023-02-01T03:08:11;6.10;99.90
59660;DHT22;45534;52.690;6.268;2023-02-01T03:10:47;6.10;99.90
59660;DHT22;45534;52.690;6.268;2023-02-01T03:21:49;6.30;99.90
59660;DHT22;45534;52.690;6.268;2023-02-01T03:24:23;6.30;99.90
59660;DHT22;45534;52.690;6.268;2023-02-01T03:27:07;6.30;99.90
59660;DHT22;45534;52.690;6.268;2023-02-01T03:29:44;6.30;99.90
59660;DHT22;45534;52.690;6.268;2023-02-01T03:32:11;6.40;99.90
59660;DHT22;45534;52.690;6.268;2023-02-01T03:34:37;6.30;99.90
59660;DHT22;45534;52.690;6.268;2023-02-01T03:37:07;6.30;99.90
59660;DHT22;45534;52.690;6.268;2023-02-01T03:39:47;6.30;99.90
59660;DHT22;45534;52.690;6.268;2023-02-01T03:42:18;6.30;99.90
59660;DHT22;45534;52.690;6.268;2023-02-01T03:47:20;6.30;99.90
59660;DHT22;45534;52.690;6.268;2023-02-01T03:49:54;6.30;99.90
59660;DHT22;45534;52.690;6.268;2023-02-01T03:52:28;6.40;99.90
59660;DHT22;45534;52.690;6.268;2023-02-01T03:54:55;6.40;99.90
59660;DHT22;45534;52.690;6.268;2023-02-01T03:57:28;6.40;99.90
59660;DHT22;45534;52.690;6.268;2023-02-01T04:00:06;6.40;99.90
59660;DHT22;45534;52.690;6.268;2023-02-01T04:02:33;6.40;99.90
59660;DHT22;45534;52.690;6.268;2023-02-01T04:04:59;6.40;99.90
59660;DHT22;45534;52.690;6.268;2023-02-01T04:07:25;6.40;99.90
59660;DHT22;45534;52.690;6.268;2023-02-01T04:09:51;6.40;99.90
59660;DHT22;45534;52.690;6.268;2023-02-01T04:12:16;6.40;99.90
59660;DHT22;45534;52.690;6.268;2023-02-01T04:14:42;6.40;99.90
59660;DHT22;45534;52.690;6.268;2023-02-01T04:17:08;6.40;99.90
59660;DHT22;45534;52.690;6.268;2023-02-01T04:19:33;6.40;99.90
59660;DHT22;45534;52.690;6.268;2023-02-01T04:21:59;6.40;99.90
59660;DHT22;45534;52.690;6.268;2023-02-01T04:24:27;6.40;99.90
59660;DHT22;45534;52.690;6.268;2023-02-01T04:26:53;6.40;99.90
59660;DHT22;45534;52.690;6.268;2023-02-01T04:29:19;6.40;99.90
59660;DHT22;45534;52.690;6.268;2023-02-01T04:31:44;6.40;99.90
59660;DHT22;45534;52.690;6.268;2023-02-01T04:34:11;6.40;99.90
59660;DHT22;45534;52.690;6.268;2023-02-01T04:36:37;6.40;99.90
59660;DHT22;45534;52.690;6.268;2023-02-01T04:39:03;6.40;99.90
59660;DHT22;45534;52.690;6.268;2023-02-01T04:41:29;6.40;99.90
59660;DHT22;45534;52.690;6.268;2023-02-01T04:43:55;6.40;99.90
59660;DHT22;45534;52.690;6.268;2023-02-01T04:46:21;6.50;99.90
59660;DHT22;45534;52.690;6.268;2023-02-01T04:48:47;6.50;99.90
59660;DHT22;45534;52.690;6.268;2023-02-01T04:51:13;6.50;99.90
59660;DHT22;45534;52.690;6.268;2023-02-01T04:53:40;6.50;99.90
59660;DHT22;45534;52.690;6.268;2023-02-01T04:56:06;6.50;99.90
59660;DHT22;45534;52.690;6.268;2023-02-01T04:58:32;6.50;99.90
59660;DHT22;45534;52.690;6.268;2023-02-01T05:00:58;6.50;99.90
59660;DHT22;45534;52.690;6.268;2023-02-01T05:03:24;6.50;99.90
59660;DHT22;45534;52.690;6.268;2023-02-01T05:05:49;6.50;99.90
59660;DHT22;45534;52.690;6.268;2023-02-01T05:08:15;6.50;99.90
59660;DHT22;45534;52.690;6.268;2023-02-01T05:10:41;6.50;99.90
59660;DHT22;45534;52.690;6.268;2023-02-01T05:13:08;6.40;99.90
59660;DHT22;45534;52.690;6.268;2023-02-01T05:15:52;6.40;99.90
59660;DHT22;45534;52.690;6.268;2023-02-01T05:18:18;6.40;99.90
59660;DHT22;45534;52.690;6.268;2023-02-01T05:20:44;6.40;99.90
59660;DHT22;45534;52.690;6.268;2023-02-01T05:23:09;6.30;99.90
59660;DHT22;45534;52.690;6.268;2023-02-01T05:25:35;6.40;99.90
59660;DHT22;45534;52.690;6.268;2023-02-01T05:28:01;6.40;99.90
59660;DHT22;45534;52.690;6.268;2023-02-01T05:30:26;6.40;99.90
59660;DHT22;45534;52.690;6.268;2023-02-01T05:32:52;6.40;99.90
59660;DHT22;45534;52.690;6.268;2023-02-01T05:35:19;6.40;99.90
59660;DHT22;45534;52.690;6.268;2023-02-01T05:37:44;6.50;99.90
59660;DHT22;45534;52.690;6.268;2023-02-01T05:40:11;6.50;99.90
59660;DHT22;45534;52.690;6.268;2023-02-01T05:42:36;6.50;99.90
59660;DHT22;45534;52.690;6.268;2023-02-01T05:45:03;6.50;99.90
59660;DHT22;45534;52.690;6.268;2023-02-01T05:47:31;6.60;99.90
59660;DHT22;45534;52.690;6.268;2023-02-01T05:49:56;6.50;99.90
59660;DHT22;45534;52.690;6.268;2023-02-01T05:52:22;6.60;99.90
59660;DHT22;45534;52.690;6.268;2023-02-01T05:54:48;6.60;99.90
59660;DHT22;45534;52.690;6.268;2023-02-01T05:57:14;6.60;99.90
59660;DHT22;45534;52.690;6.268;2023-02-01T05:59:40;6.60;99.90
59660;DHT22;45534;52.690;6.268;2023-02-01T06:02:10;6.70;99.90
59660;DHT22;45534;52.690;6.268;2023-02-01T06:04:36;6.70;99.90
59660;DHT22;45534;52.690;6.268;2023-02-01T06:07:02;6.70;99.90
59660;DHT22;45534;52.690;6.268;2023-02-01T06:09:27;6.70;99.90
59660;DHT22;45534;52.690;6.268;2023-02-01T06:11:54;6.70;99.90
59660;DHT22;45534;52.690;6.268;2023-02-01T06:14:19;6.70;99.90
59660;DHT22;45534;52.690;6.268;2023-02-01T06:16:45;6.70;99.90
59660;DHT22;45534;52.690;6.268;2023-02-01T06:19:12;6.70;99.90
59660;DHT22;45534;52.690;6.268;2023-02-01T06:21:38;6.70;99.90
59660;DHT22;45534;52.690;6.268;2023-02-01T06:24:04;6.70;99.90
59660;DHT22;45534;52.690;6.268;2023-02-01T06:26:30;6.70;99.90
59660;DHT22;45534;52.690;6.268;2023-02-01T06:28:58;6.70;99.90
59660;DHT22;45534;52.690;6.268;2023-02-01T06:31:24;6.70;99.90
59660;DHT22;45534;52.690;6.268;2023-02-01T06:33:51;6.70;99.90
59660;DHT22;45534;52.690;6.268;2023-02-01T06:36:17;6.70;99.90
59660;DHT22;45534;52.690;6.268;2023-02-01T06:38:44;6.70;99.90
59660;DHT22;45534;52.690;6.268;2023-02-01T06:41:10;6.70;99.90
59660;DHT22;45534;52.690;6.268;2023-02-01T06:43:36;6.70;99.90
59660;DHT22;45534;52.690;6.268;2023-02-01T06:46:05;6.70;99.90
59660;DHT22;45534;52.690;6.268;2023-02-01T06:48:31;6.70;99.90
59660;DHT22;45534;52.690;6.268;2023-02-01T06:50:57;6.70;99.90
59660;DHT22;45534;52.690;6.268;2023-02-01T06:53:23;6.70;99.90
59660;DHT22;45534;52.690;6.268;2023-02-01T06:55:54;6.70;99.90
59660;DHT22;45534;52.690;6.268;2023-02-01T06:58:20;6.70;99.90
59660;DHT22;45534;52.690;6.268;2023-02-01T07:00:45;6.70;99.90
59660;DHT22;45534;52.690;6.268;2023-02-01T07:03:11;6.70;99.90
59660;DHT22;45534;52.690;6.268;2023-02-01T07:05:37;6.70;99.90
59660;DHT22;45534;52.690;6.268;2023-02-01T07:08:02;6.70;99.90
59660;DHT22;45534;52.690;6.268;2023-02-01T07:10:28;6.60;99.90
59660;DHT22;45534;52.690;6.268;2023-02-01T07:12:57;6.60;99.90
59660;DHT22;45534;52.690;6.268;2023-02-01T07:15:23;6.70;99.90
59660;DHT22;45534;52.690;6.268;2023-02-01T07:17:48;6.70;99.90
59660;DHT22;45534;52.690;6.268;2023-02-01T07:20:15;6.70;99.90
59660;DHT22;45534;52.690;6.268;2023-02-01T07:22:41;6.60;99.90
59660;DHT22;45534;52.690;6.268;2023-02-01T07:25:07;6.60;99.90
59660;DHT22;45534;52.690;6.268;2023-02-01T07:27:36;6.60;99.90
59660;DHT22;45534;52.690;6.268;2023-02-01T07:30:03;6.70;99.90
59660;DHT22;45534;52.690;6.268;2023-02-01T07:32:29;6.70;99.90
59660;DHT22;45534;52.690;6.268;2023-02-01T07:34:56;6.70;99.90
59660;DHT22;45534;52.690;6.268;2023-02-01T07:37:21;6.70;99.90
59660;DHT22;45534;52.690;6.268;2023-02-01T07:39:52;6.60;99.90
59660;DHT22;45534;52.690;6.268;2023-02-01T07:42:18;6.60;99.90
59660;DHT22;45534;52.690;6.268;2023-02-01T07:44:43;6.60;99.90
59660;DHT22;45534;52.690;6.268;2023-02-01T07:47:09;6.60;99.90
59660;DHT22;45534;52.690;6.268;2023-02-01T07:49:35;6.50;99.90
59660;DHT22;45534;52.690;6.268;2023-02-01T07:52:00;6.50;99.90
59660;DHT22;45534;52.690;6.268;2023-02-01T07:54:26;6.50;99.90
59660;DHT22;45534;52.690;6.268;2023-02-01T07:56:52;6.50;99.90
59660;DHT22;45534;52.690;6.268;2023-02-01T07:59:18;6.50;99.90
59660;DHT22;45534;52.690;6.268;2023-02-01T08:01:43;6.40;99.90
59660;DHT22;45534;52.690;6.268;2023-02-01T08:04:13;6.40;99.90
59660;DHT22;45534;52.690;6.268;2023-02-01T08:06:39;6.40;99.90
59660;DHT22;45534;52.690;6.268;2023-02-01T08:09:06;6.40;99.90
59660;DHT22;45534;52.690;6.268;2023-02-01T08:11:33;6.30;99.90
59660;DHT22;45534;52.690;6.268;2023-02-01T08:13:59;6.30;99.90
59660;DHT22;45534;52.690;6.268;2023-02-01T08:16:25;6.30;99.90
59660;DHT22;45534;52.690;6.268;2023-02-01T08:18:52;6.20;99.90
59660;DHT22;45534;52.690;6.268;2023-02-01T08:21:20;6.20;99.90
59660;DHT22;45534;52.690;6.268;2023-02-01T08:23:47;6.30;99.90
59660;DHT22;45534;52.690;6.268;2023-02-01T08:26:17;6.30;99.90
59660;DHT22;45534;52.690;6.268;2023-02-01T08:28:47;6.40;99.90
59660;DHT22;45534;52.690;6.268;2023-02-01T08:31:15;6.40;99.90
59660;DHT22;45534;52.690;6.268;2023-02-01T08:33:42;6.40;99.90
59660;DHT22;45534;52.690;6.268;2023-02-01T08:36:10;6.50;99.90
59660;DHT22;45534;52.690;6.268;2023-02-01T08:38:38;6.50;99.90
59660;DHT22;45534;52.690;6.268;2023-02-01T08:41:12;6.50;99.90
59660;DHT22;45534;52.690;6.268;2023-02-01T08:43:39;6.50;99.90
59660;DHT22;45534;52.690;6.268;2023-02-01T08:46:06;6.50;99.90
59660;DHT22;45534;52.690;6.268;2023-02-01T08:48:34;6.50;99.90
59660;DHT22;45534;52.690;6.268;2023-02-01T08:51:04;6.50;99.90
59660;DHT22;45534;52.690;6.268;2023-02-01T08:53:30;6.50;99.90
59660;DHT22;45534;52.690;6.268;2023-02-01T08:55:56;6.50;99.90
59660;DHT22;45534;52.690;6.268;2023-02-01T08:58:22;6.50;99.90
59660;DHT22;45534;52.690;6.268;2023-02-01T09:00:48;6.60;99.90
59660;DHT22;45534;52.690;6.268;2023-02-01T09:03:14;6.60;99.90
59660;DHT22;45534;52.690;6.268;2023-02-01T09:05:41;6.60;99.90
59660;DHT22;45534;52.690;6.268;2023-02-01T09:08:07;6.60;99.90
59660;DHT22;45534;52.690;6.268;2023-02-01T09:10:34;6.60;99.90
59660;DHT22;45534;52.690;6.268;2023-02-01T09:13:00;6.60;99.90
59660;DHT22;45534;52.690;6.268;2023-02-01T09:15:29;6.60;99.90
59660;DHT22;45534;52.690;6.268;2023-02-01T09:17:54;6.60;99.90
59660;DHT22;45534;52.690;6.268;2023-02-01T09:20:20;6.60;99.90
59660;DHT22;45534;52.690;6.268;2023-02-01T09:22:50;6.60;99.90
59660;DHT22;45534;52.690;6.268;2023-02-01T09:25:17;6.60;99.90
59660;DHT22;45534;52.690;6.268;2023-02-01T09:27:42;6.60;99.90
59660;DHT22;45534;52.690;6.268;2023-02-01T09:30:08;6.60;99.90
59660;DHT22;45534;52.690;6.268;2023-02-01T09:32:35;6.70;99.90
59660;DHT22;45534;52.690;6.268;2023-02-01T09:35:01;6.70;99.90
59660;DHT22;45534;52.690;6.268;2023-02-01T09:37:28;6.60;99.90
59660;DHT22;45534;52.690;6.268;2023-02-01T09:39:54;6.60;99.90
59660;DHT22;45534;52.690;6.268;2023-02-01T09:43:04;6.70;99.90
59660;DHT22;45534;52.690;6.268;2023-02-01T09:48:18;6.70;99.90
59660;DHT22;45534;52.690;6.268;2023-02-01T09:50:53;6.70;99.90
59660;DHT22;45534;52.690;6.268;2023-02-01T09:53:25;6.70;99.90
59660;DHT22;45534;52.690;6.268;2023-02-01T09:55:58;6.70;99.90
59660;DHT22;45534;52.690;6.268;2023-02-01T09:58:37;6.70;99.90
59660;DHT22;45534;52.690;6.268;2023-02-01T10:01:08;6.70;99.90
59660;DHT22;45534;52.690;6.268;2023-02-01T10:03:36;6.70;99.90
59660;DHT22;45534;52.690;6.268;2023-02-01T10:09:40;6.70;99.90
59660;DHT22;45534;52.690;6.268;2023-02-01T10:21:04;6.70;99.90
59660;DHT22;45534;52.690;6.268;2023-02-01T10:26:26;6.70;99.90
59660;DHT22;45534;52.690;6.268;2023-02-01T10:29:03;6.70;99.90
59660;DHT22;45534;52.690;6.268;2023-02-01T10:31:32;6.80;99.90
59660;DHT22;45534;52.690;6.268;2023-02-01T10:34:01;6.70;99.90
59660;DHT22;45534;52.690;6.268;2023-02-01T10:36:35;6.80;99.90
59660;DHT22;45534;52.690;6.268;2023-02-01T10:39:03;6.80;99.90
59660;DHT22;45534;52.690;6.268;2023-02-01T10:41:38;6.80;99.90
59660;DHT22;45534;52.690;6.268;2023-02-01T10:44:10;6.80;99.90
59660;DHT22;45534;52.690;6.268;2023-02-01T10:46:37;6.70;99.90
59660;DHT22;45534;52.690;6.268;2023-02-01T10:49:04;6.70;99.90
59660;DHT22;45534;52.690;6.268;2023-02-01T10:52:12;6.60;99.90
59660;DHT22;45534;52.690;6.268;2023-02-01T10:54:38;6.60;99.90
59660;DHT22;45534;52.690;6.268;2023-02-01T10:57:09;6.50;99.90
59660;DHT22;45534;52.690;6.268;2023-02-01T10:59:34;6.50;99.90
59660;DHT22;45534;52.690;6.268;2023-02-01T11:02:32;6.50;99.90
59660;DHT22;45534;52.690;6.268;2023-02-01T11:05:06;6.50;99.90
59660;DHT22;45534;52.690;6.268;2023-02-01T11:07:34;6.60;99.90
59660;DHT22;45534;52.690;6.268;2023-02-01T11:10:02;6.60;99.90
59660;DHT22;45534;52.690;6.268;2023-02-01T11:12:29;6.70;99.90
59660;DHT22;45534;52.690;6.268;2023-02-01T11:15:15;6.70;99.90
59660;DHT22;45534;52.690;6.268;2023-02-01T11:17:46;6.70;99.90
59660;DHT22;45534;52.690;6.268;2023-02-01T11:20:18;6.80;99.90
59660;DHT22;45534;52.690;6.268;2023-02-01T11:22:55;6.80;99.90
59660;DHT22;45534;52.690;6.268;2023-02-01T11:25:22;6.80;99.90
59660;DHT22;45534;52.690;6.268;2023-02-01T11:27:53;6.90;99.90
59660;DHT22;45534;52.690;6.268;2023-02-01T11:30:44;6.90;99.90
59660;DHT22;45534;52.690;6.268;2023-02-01T11:33:17;7.00;99.90
59660;DHT22;45534;52.690;6.268;2023-02-01T11:35:44;7.00;99.90
59660;DHT22;45534;52.690;6.268;2023-02-01T11:38:31;7.10;99.90
59660;DHT22;45534;52.690;6.268;2023-02-01T11:41:17;7.10;99.90
59660;DHT22;45534;52.690;6.268;2023-02-01T11:43:57;7.10;99.90
59660;DHT22;45534;52.690;6.268;2023-02-01T11:46:33;7.10;99.90
59660;DHT22;45534;52.690;6.268;2023-02-01T11:49:23;7.00;99.90
59660;DHT22;45534;52.690;6.268;2023-02-01T11:54:54;6.90;99.90
59660;DHT22;45534;52.690;6.268;2023-02-01T11:57:41;6.80;99.90
59660;DHT22;45534;52.690;6.268;2023-02-01T12:06:49;6.70;99.90
59660;DHT22;45534;52.690;6.268;2023-02-01T12:14:51;6.80;99.90
59660;DHT22;45534;52.690;6.268;2023-02-01T12:36:36;6.60;99.90
59660;DHT22;45534;52.690;6.268;2023-02-01T12:47:05;6.80;99.90
59660;DHT22;45534;52.690;6.268;2023-02-01T12:57:42;6.90;99.90
59660;DHT22;45534;52.690;6.268;2023-02-01T13:00:28;7.00;99.90
59660;DHT22;45534;52.690;6.268;2023-02-01T13:03:06;7.00;99.90
59660;DHT22;45534;52.690;6.268;2023-02-01T13:06:03;7.00;99.90
59660;DHT22;45534;52.690;6.268;2023-02-01T13:08:45;7.10;99.90
59660;DHT22;45534;52.690;6.268;2023-02-01T13:11:21;7.20;99.90
59660;DHT22;45534;52.690;6.268;2023-02-01T13:14:33;7.30;99.90
59660;DHT22;45534;52.690;6.268;2023-02-01T13:16:43;7.40;99.90
59660;DHT22;45534;52.690;6.268;2023-02-01T13:19:39;7.60;99.90
59660;DHT22;45534;52.690;6.268;2023-02-01T13:22:19;7.60;99.90
59660;DHT22;45534;52.690;6.268;2023-02-01T13:24:51;7.60;99.90
59660;DHT22;45534;52.690;6.268;2023-02-01T13:27:21;7.70;99.90
59660;DHT22;45534;52.690;6.268;2023-02-01T13:29:56;7.70;99.90
59660;DHT22;45534;52.690;6.268;2023-02-01T13:37:48;7.70;99.90
59660;DHT22;45534;52.690;6.268;2023-02-01T13:43:05;7.60;99.90
59660;DHT22;45534;52.690;6.268;2023-02-01T13:45:35;7.70;99.90
59660;DHT22;45534;52.690;6.268;2023-02-01T13:48:04;7.60;99.90
59660;DHT22;45534;52.690;6.268;2023-02-01T13:50:37;7.60;99.90
59660;DHT22;45534;52.690;6.268;2023-02-01T13:53:20;7.60;99.90
59660;DHT22;45534;52.690;6.268;2023-02-01T13:56:03;7.70;99.90
59660;DHT22;45534;52.690;6.268;2023-02-01T14:03:55;7.90;99.90
59660;DHT22;45534;52.690;6.268;2023-02-01T14:11:43;8.10;99.90
59660;DHT22;45534;52.690;6.268;2023-02-01T14:19:25;7.90;99.90
59660;DHT22;45534;52.690;6.268;2023-02-01T14:21:52;7.90;99.90
59660;DHT22;45534;52.690;6.268;2023-02-01T14:24:28;7.90;99.90
59660;DHT22;45534;52.690;6.268;2023-02-01T14:26:56;7.80;99.90
59660;DHT22;45534;52.690;6.268;2023-02-01T14:29:27;7.90;99.90
59660;DHT22;45534;52.690;6.268;2023-02-01T14:32:04;7.80;99.90
59660;DHT22;45534;52.690;6.268;2023-02-01T14:37:02;7.90;99.90
59660;DHT22;45534;52.690;6.268;2023-02-01T14:47:45;8.00;99.90
59660;DHT22;45534;52.690;6.268;2023-02-01T14:56:06;8.00;99.90
59660;DHT22;45534;52.690;6.268;2023-02-01T15:01:33;7.90;99.90
59660;DHT22;45534;52.690;6.268;2023-02-01T15:04:14;8.00;99.90
59660;DHT22;45534;52.690;6.268;2023-02-01T15:06:47;7.90;99.90
59660;DHT22;45534;52.690;6.268;2023-02-01T15:14:21;7.90;99.90
59660;DHT22;45534;52.690;6.268;2023-02-01T15:16:46;7.90;99.90
59660;DHT22;45534;52.690;6.268;2023-02-01T15:19:20;7.90;99.90
59660;DHT22;45534;52.690;6.268;2023-02-01T15:21:56;7.90;99.90
59660;DHT22;45534;52.690;6.268;2023-02-01T15:24:30;7.90;99.90
59660;DHT22;45534;52.690;6.268;2023-02-01T15:27:02;7.90;99.90
59660;DHT22;45534;52.690;6.268;2023-02-01T15:29:31;7.90;99.90
59660;DHT22;45534;52.690;6.268;2023-02-01T15:31:59;7.80;99.90
59660;DHT22;45534;52.690;6.268;2023-02-01T15:34:45;7.80;99.90
59660;DHT22;45534;52.690;6.268;2023-02-01T15:37:13;7.80;99.90
59660;DHT22;45534;52.690;6.268;2023-02-01T15:40:04;7.80;99.90
59660;DHT22;45534;52.690;6.268;2023-02-01T15:42:33;7.80;99.90
59660;DHT22;45534;52.690;6.268;2023-02-01T15:44:59;7.70;99.90
59660;DHT22;45534;52.690;6.268;2023-02-01T15:47:28;7.70;99.90
59660;DHT22;45534;52.690;6.268;2023-02-01T15:49:59;7.70;99.90
59660;DHT22;45534;52.690;6.268;2023-02-01T15:52:27;7.70;99.90
59660;DHT22;45534;52.690;6.268;2023-02-01T15:55:00;7.70;99.90
59660;DHT22;45534;52.690;6.268;2023-02-01T15:57:30;7.60;99.90
59660;DHT22;45534;52.690;6.268;2023-02-01T16:00:06;7.60;99.90
59660;DHT22;45534;52.690;6.268;2023-02-01T16:04:59;7.50;99.90
59660;DHT22;45534;52.690;6.268;2023-02-01T16:07:31;7.50;99.90
59660;DHT22;45534;52.690;6.268;2023-02-01T16:09:59;7.50;99.90
59660;DHT22;45534;52.690;6.268;2023-02-01T16:12:46;7.50;99.90
59660;DHT22;45534;52.690;6.268;2023-02-01T16:15:12;7.40;99.90
59660;DHT22;45534;52.690;6.268;2023-02-01T16:17:38;7.40;99.90
59660;DHT22;45534;52.690;6.268;2023-02-01T16:20:04;7.30;99.90
59660;DHT22;45534;52.690;6.268;2023-02-01T16:22:29;7.30;99.90
59660;DHT22;45534;52.690;6.268;2023-02-01T16:24:55;7.30;99.90
59660;DHT22;45534;52.690;6.268;2023-02-01T16:27:21;7.20;99.90
59660;DHT22;45534;52.690;6.268;2023-02-01T16:29:48;7.20;99.90
59660;DHT22;45534;52.690;6.268;2023-02-01T16:32:19;7.20;99.90
59660;DHT22;45534;52.690;6.268;2023-02-01T16:34:46;7.20;99.90
59660;DHT22;45534;52.690;6.268;2023-02-01T16:37:15;7.20;99.90
59660;DHT22;45534;52.690;6.268;2023-02-01T16:39:41;7.20;99.90
59660;DHT22;45534;52.690;6.268;2023-02-01T16:42:11;7.10;99.90
59660;DHT22;45534;52.690;6.268;2023-02-01T16:44:37;7.10;99.90
59660;DHT22;45534;52.690;6.268;2023-02-01T16:47:14;7.10;99.90
59660;DHT22;45534;52.690;6.268;2023-02-01T16:49:42;7.10;99.90
59660;DHT22;45534;52.690;6.268;2023-02-01T16:52:16;7.00;99.90
59660;DHT22;45534;52.690;6.268;2023-02-01T16:54:43;7.00;99.90
59660;DHT22;45534;52.690;6.268;2023-02-01T16:57:13;7.00;99.90
59660;DHT22;45534;52.690;6.268;2023-02-01T16:59:39;7.00;99.90
59660;DHT22;45534;52.690;6.268;2023-02-01T17:02:08;7.00;99.90
59660;DHT22;45534;52.690;6.268;2023-02-01T17:04:35;7.00;99.90
59660;DHT22;45534;52.690;6.268;2023-02-01T17:07:01;6.90;99.90
59660;DHT22;45534;52.690;6.268;2023-02-01T17:09:37;6.90;99.90
59660;DHT22;45534;52.690;6.268;2023-02-01T17:12:03;6.90;99.90
59660;DHT22;45534;52.690;6.268;2023-02-01T17:14:32;6.90;99.90
59660;DHT22;45534;52.690;6.268;2023-02-01T17:17:00;6.90;99.90
59660;DHT22;45534;52.690;6.268;2023-02-01T17:19:26;7.00;99.90
59660;DHT22;45534;52.690;6.268;2023-02-01T17:21:54;6.90;99.90
59660;DHT22;45534;52.690;6.268;2023-02-01T17:24:27;6.90;99.90
59660;DHT22;45534;52.690;6.268;2023-02-01T17:26:53;6.90;99.90
59660;DHT22;45534;52.690;6.268;2023-02-01T17:29:19;6.90;99.90
59660;DHT22;45534;52.690;6.268;2023-02-01T17:31:47;6.90;99.90
59660;DHT22;45534;52.690;6.268;2023-02-01T17:34:15;6.90;99.90
59660;DHT22;45534;52.690;6.268;2023-02-01T17:36:42;6.90;99.90
59660;DHT22;45534;52.690;6.268;2023-02-01T17:39:09;6.90;99.90
59660;DHT22;45534;52.690;6.268;2023-02-01T17:41:36;6.90;99.90
59660;DHT22;45534;52.690;6.268;2023-02-01T17:44:03;6.90;99.90
59660;DHT22;45534;52.690;6.268;2023-02-01T17:46:30;6.90;99.90
59660;DHT22;45534;52.690;6.268;2023-02-01T17:48:56;6.90;99.90
59660;DHT22;45534;52.690;6.268;2023-02-01T17:51:24;6.90;99.90
59660;DHT22;45534;52.690;6.268;2023-02-01T17:53:52;6.90;99.90
59660;DHT22;45534;52.690;6.268;2023-02-01T17:56:21;6.80;99.90
59660;DHT22;45534;52.690;6.268;2023-02-01T17:58:47;6.80;99.90
59660;DHT22;45534;52.690;6.268;2023-02-01T18:01:18;6.70;99.90
59660;DHT22;45534;52.690;6.268;2023-02-01T18:03:47;6.70;99.90
59660;DHT22;45534;52.690;6.268;2023-02-01T18:06:16;6.60;99.90
59660;DHT22;45534;52.690;6.268;2023-02-01T18:08:42;6.60;99.90
59660;DHT22;45534;52.690;6.268;2023-02-01T18:11:17;6.50;99.90
59660;DHT22;45534;52.690;6.268;2023-02-01T18:13:43;6.50;99.90
59660;DHT22;45534;52.690;6.268;2023-02-01T18:16:18;6.40;99.90
59660;DHT22;45534;52.690;6.268;2023-02-01T18:18:44;6.40;99.90
59660;DHT22;45534;52.690;6.268;2023-02-01T18:21:10;6.40;99.90
59660;DHT22;45534;52.690;6.268;2023-02-01T18:23:35;6.50;99.90
59660;DHT22;45534;52.690;6.268;2023-02-01T18:26:01;6.50;99.90
59660;DHT22;45534;52.690;6.268;2023-02-01T18:28:28;6.50;99.90
59660;DHT22;45534;52.690;6.268;2023-02-01T18:30:54;6.50;99.90
59660;DHT22;45534;52.690;6.268;2023-02-01T18:33:20;6.50;99.90